sensor_id;sensor_type;location;lat;lon;timestamp;pressure;altitude;pressure_sealevel;temperature;humidity
31121;BME280;17770;45.966;13.632;2023-05-16T00:01:09;99623.22;;;21.74;55.10
31121;BME280;17770;45.966;13.632;2023-05-16T00:03:35;99619.75;;;21.74;54.89
31121;BME280;17770;45.966;13.632;2023-05-16T00:06:04;99628.47;;;21.74;54.86
31121;BME280;17770;45.966;13.632;2023-05-16T00:08:30;99625.13;;;21.72;55.03
31121;BME280;17770;45.966;13.632;2023-05-16T00:10:56;99621.53;;;21.73;54.81
31121;BME280;17770;45.966;13.632;2023-05-16T00:13:22;99628.59;;;21.73;54.70
31121;BME280;17770;45.966;13.632;2023-05-16T00:15:50;99631.34;;;21.71;55.01
31121;BME280;17770;45.966;13.632;2023-05-16T00:18:17;99639.38;;;21.70;54.94
31121;BME280;17770;45.966;13.632;2023-05-16T00:20:44;99669.88;;;21.71;54.86
31121;BME280;17770;45.966;13.632;2023-05-16T00:23:10;99624.44;;;21.70;55.02
31121;BME280;17770;45.966;13.632;2023-05-16T00:25:37;99673.34;;;21.71;54.77
31121;BME280;17770;45.966;13.632;2023-05-16T00:28:03;99640.19;;;21.70;54.78
31121;BME280;17770;45.966;13.632;2023-05-16T00:30:29;99628.88;;;21.70;54.76
31121;BME280;17770;45.966;13.632;2023-05-16T00:32:55;99632.44;;;21.69;54.85
31121;BME280;17770;45.966;13.632;2023-05-16T00:35:22;99640.31;;;21.69;54.85
31121;BME280;17770;45.966;13.632;2023-05-16T00:37:49;99628.16;;;21.68;54.87
31121;BME280;17770;45.966;13.632;2023-05-16T00:40:15;99619.44;;;21.67;54.60
31121;BME280;17770;45.966;13.632;2023-05-16T00:42:41;99619.44;;;21.67;54.84
31121;BME280;17770;45.966;13.632;2023-05-16T00:45:07;99621.22;;;21.67;54.68
31121;BME280;17770;45.966;13.632;2023-05-16T00:47:34;99605.63;;;21.65;54.80
31121;BME280;17770;45.966;13.632;2023-05-16T00:50:00;99607.56;;;21.63;54.73
31121;BME280;17770;45.966;13.632;2023-05-16T00:52:26;99619.00;;;21.62;54.70
31121;BME280;17770;45.966;13.632;2023-05-16T00:54:53;99598.72;;;21.64;54.79
31121;BME280;17770;45.966;13.632;2023-05-16T00:57:19;99592.78;;;21.62;54.76
31121;BME280;17770;45.966;13.632;2023-05-16T00:59:45;99600.50;;;21.64;54.62
31121;BME280;17770;45.966;13.632;2023-05-16T01:02:12;99594.56;;;21.62;54.96
31121;BME280;17770;45.966;13.632;2023-05-16T01:04:38;99564.75;;;21.63;54.74
31121;BME280;17770;45.966;13.632;2023-05-16T01:07:03;99567.50;;;21.61;54.65
31121;BME280;17770;45.966;13.632;2023-05-16T01:09:33;99562.25;;;21.61;54.93
31121;BME280;17770;45.966;13.632;2023-05-16T01:17:09;99535.44;;;21.58;54.89
31121;BME280;17770;45.966;13.632;2023-05-16T01:27:26;99432.41;;;21.56;54.66
31121;BME280;17770;45.966;13.632;2023-05-16T01:29:55;99463.31;;;21.52;54.81
31121;BME280;17770;45.966;13.632;2023-05-16T01:32:21;99472.75;;;21.55;54.68
31121;BME280;17770;45.966;13.632;2023-05-16T01:34:49;99445.66;;;21.54;54.70
31121;BME280;17770;45.966;13.632;2023-05-16T01:37:28;99436.13;;;21.53;54.67
31121;BME280;17770;45.966;13.632;2023-05-16T01:39:58;99444.00;;;21.53;54.77
31121;BME280;17770;45.966;13.632;2023-05-16T01:42:34;99450.22;;;21.52;54.83
31121;BME280;17770;45.966;13.632;2023-05-16T01:45:04;99422.47;;;21.50;54.91
31121;BME280;17770;45.966;13.632;2023-05-16T01:47:32;99446.88;;;21.50;54.86
31121;BME280;17770;45.966;13.632;2023-05-16T01:50:09;99429.34;;;21.51;54.78
31121;BME280;17770;45.966;13.632;2023-05-16T01:55:13;99399.94;;;21.47;54.90
31121;BME280;17770;45.966;13.632;2023-05-16T01:57:40;99401.84;;;21.45;54.76
31121;BME280;17770;45.966;13.632;2023-05-16T02:00:07;99422.97;;;21.44;54.57
31121;BME280;17770;45.966;13.632;2023-05-16T02:02:39;99428.38;;;21.42;54.71
31121;BME280;17770;45.966;13.632;2023-05-16T02:05:05;99399.38;;;21.44;54.73
31121;BME280;17770;45.966;13.632;2023-05-16T02:07:32;99421.47;;;21.41;54.86
31121;BME280;17770;45.966;13.632;2023-05-16T02:09:58;99413.59;;;21.41;54.71
31121;BME280;17770;45.966;13.632;2023-05-16T02:12:24;99396.09;;;21.42;54.54
31121;BME280;17770;45.966;13.632;2023-05-16T02:14:50;99425.88;;;21.41;54.78
31121;BME280;17770;45.966;13.632;2023-05-16T02:17:16;99397.88;;;21.41;54.62
31121;BME280;17770;45.966;13.632;2023-05-16T02:19:42;99376.19;;;21.39;54.66
31121;BME280;17770;45.966;13.632;2023-05-16T02:22:08;99366.81;;;21.37;54.65
31121;BME280;17770;45.966;13.632;2023-05-16T02:24:33;99378.94;;;21.38;55.08
31121;BME280;17770;45.966;13.632;2023-05-16T02:26:59;99404.19;;;21.39;54.65
31121;BME280;17770;45.966;13.632;2023-05-16T02:29:25;99393.84;;;21.37;54.47
31121;BME280;17770;45.966;13.632;2023-05-16T02:31:51;99373.69;;;21.38;54.79
31121;BME280;17770;45.966;13.632;2023-05-16T02:34:17;99351.06;;;21.37;54.38
31121;BME280;17770;45.966;13.632;2023-05-16T02:36:43;99334.34;;;21.38;54.74
31121;BME280;17770;45.966;13.632;2023-05-16T02:39:09;99339.59;;;21.38;54.50
31121;BME280;17770;45.966;13.632;2023-05-16T02:41:36;99318.88;;;21.35;54.71
31121;BME280;17770;45.966;13.632;2023-05-16T02:44:01;99312.81;;;21.34;54.66
31121;BME280;17770;45.966;13.632;2023-05-16T02:46:32;99365.28;;;21.34;54.75
31121;BME280;17770;45.966;13.632;2023-05-16T02:48:58;99316.56;;;21.32;54.59
31121;BME280;17770;45.966;13.632;2023-05-16T02:51:25;99328.69;;;21.33;54.75
31121;BME280;17770;45.966;13.632;2023-05-16T02:53:51;99324.41;;;21.32;54.70
31121;BME280;17770;45.966;13.632;2023-05-16T02:56:17;99315.56;;;21.33;54.68
31121;BME280;17770;45.966;13.632;2023-05-16T02:58:46;99304.53;;;21.29;54.80
31121;BME280;17770;45.966;13.632;2023-05-16T03:01:12;99287.94;;;21.29;54.60
31121;BME280;17770;45.966;13.632;2023-05-16T03:03:40;99305.34;;;21.30;54.70
31121;BME280;17770;45.966;13.632;2023-05-16T03:06:05;99298.44;;;21.29;54.59
31121;BME280;17770;45.966;13.632;2023-05-16T03:08:32;99305.34;;;21.30;54.46
31121;BME280;17770;45.966;13.632;2023-05-16T03:10:58;99329.91;;;21.29;54.46
31121;BME280;17770;45.966;13.632;2023-05-16T03:13:23;99300.25;;;21.28;54.39
31121;BME280;17770;45.966;13.632;2023-05-16T03:15:50;99339.75;;;21.27;54.49
31121;BME280;17770;45.966;13.632;2023-05-16T03:18:16;99338.63;;;21.29;54.49
31121;BME280;17770;45.966;13.632;2023-05-16T03:20:42;99349.13;;;21.29;54.42
31121;BME280;17770;45.966;13.632;2023-05-16T03:23:08;99333.38;;;21.29;54.44
31121;BME280;17770;45.966;13.632;2023-05-16T03:25:35;99330.75;;;21.29;54.50
31121;BME280;17770;45.966;13.632;2023-05-16T03:28:02;99328.13;;;21.29;54.22
31121;BME280;17770;45.966;13.632;2023-05-16T03:30:28;99304.66;;;21.28;54.50
31121;BME280;17770;45.966;13.632;2023-05-16T03:32:54;99295.81;;;21.29;54.56
31121;BME280;17770;45.966;13.632;2023-05-16T03:35:20;99276.78;;;21.27;54.50
31121;BME280;17770;45.966;13.632;2023-05-16T03:37:46;99235.78;;;21.26;54.35
31121;BME280;17770;45.966;13.632;2023-05-16T03:40:12;99254.97;;;21.26;54.09
31121;BME280;17770;45.966;13.632;2023-05-16T03:42:38;99226.13;;;21.26;54.34
31121;BME280;17770;45.966;13.632;2023-05-16T03:47:29;99254.28;;;21.24;54.34
31121;BME280;17770;45.966;13.632;2023-05-16T03:49:56;99252.63;;;21.23;54.49
31121;BME280;17770;45.966;13.632;2023-05-16T03:52:22;99280.66;;;21.23;54.46
31121;BME280;17770;45.966;13.632;2023-05-16T03:54:48;99285.88;;;21.23;54.43
31121;BME280;17770;45.966;13.632;2023-05-16T03:57:14;99257.03;;;21.23;54.32
31121;BME280;17770;45.966;13.632;2023-05-16T03:59:40;99209.00;;;21.22;54.40
31121;BME280;17770;45.966;13.632;2023-05-16T04:02:06;99293.75;;;21.23;54.50
31121;BME280;17770;45.966;13.632;2023-05-16T04:04:32;99318.34;;;21.22;54.25
31121;BME280;17770;45.966;13.632;2023-05-16T04:06:59;99292.91;;;21.22;54.34
31121;BME280;17770;45.966;13.632;2023-05-16T04:09:25;99316.53;;;21.22;54.30
31121;BME280;17770;45.966;13.632;2023-05-16T04:11:51;99328.00;;;21.21;54.26
31121;BME280;17770;45.966;13.632;2023-05-16T04:14:16;99328.84;;;21.22;54.37
31121;BME280;17770;45.966;13.632;2023-05-16T04:16:42;99306.19;;;21.21;54.39
31121;BME280;17770;45.966;13.632;2023-05-16T04:19:08;99321.09;;;21.20;54.42
31121;BME280;17770;45.966;13.632;2023-05-16T04:21:34;99311.41;;;21.21;54.38
31121;BME280;17770;45.966;13.632;2023-05-16T04:24:01;99260.94;;;21.19;54.18
31121;BME280;17770;45.966;13.632;2023-05-16T04:26:27;99255.69;;;21.19;54.37
31121;BME280;17770;45.966;13.632;2023-05-16T04:28:53;99269.88;;;21.16;54.29
31121;BME280;17770;45.966;13.632;2023-05-16T04:31:19;99295.03;;;21.19;54.29
31121;BME280;17770;45.966;13.632;2023-05-16T04:33:46;99290.72;;;21.18;54.22
31121;BME280;17770;45.966;13.632;2023-05-16T04:36:12;99301.22;;;21.18;54.32
31121;BME280;17770;45.966;13.632;2023-05-16T04:38:38;99234.97;;;21.16;54.20
31121;BME280;17770;45.966;13.632;2023-05-16T04:41:03;99323.97;;;21.17;54.05
31121;BME280;17770;45.966;13.632;2023-05-16T04:43:29;99301.34;;;21.16;54.25
31121;BME280;17770;45.966;13.632;2023-05-16T04:45:55;99287.41;;;21.16;54.00
31121;BME280;17770;45.966;13.632;2023-05-16T04:48:23;99325.94;;;21.15;54.29
31121;BME280;17770;45.966;13.632;2023-05-16T04:50:49;99314.47;;;21.16;54.34
31121;BME280;17770;45.966;13.632;2023-05-16T04:53:15;99339.84;;;21.16;54.25
31121;BME280;17770;45.966;13.632;2023-05-16T04:55:41;99383.63;;;21.15;54.15
31121;BME280;17770;45.966;13.632;2023-05-16T04:58:07;99326.88;;;21.14;53.97
31121;BME280;17770;45.966;13.632;2023-05-16T05:00:33;99319.00;;;21.14;54.45
31121;BME280;17770;45.966;13.632;2023-05-16T05:02:59;99289.34;;;21.14;54.08
31121;BME280;17770;45.966;13.632;2023-05-16T05:05:24;99271.00;;;21.14;54.21
31121;BME280;17770;45.966;13.632;2023-05-16T05:07:50;99263.38;;;21.11;54.20
31121;BME280;17770;45.966;13.632;2023-05-16T05:10:17;99237.03;;;21.12;54.16
31121;BME280;17770;45.966;13.632;2023-05-16T05:12:42;99248.50;;;21.11;54.05
31121;BME280;17770;45.966;13.632;2023-05-16T05:15:08;99297.34;;;21.12;54.33
31121;BME280;17770;45.966;13.632;2023-05-16T05:17:34;99319.16;;;21.13;53.84
31121;BME280;17770;45.966;13.632;2023-05-16T05:20:02;99311.28;;;21.13;54.07
31121;BME280;17770;45.966;13.632;2023-05-16T05:22:31;99353.25;;;21.13;54.07
31121;BME280;17770;45.966;13.632;2023-05-16T05:24:57;99368.28;;;21.11;54.25
31121;BME280;17770;45.966;13.632;2023-05-16T05:27:23;99339.28;;;21.12;53.85
31121;BME280;17770;45.966;13.632;2023-05-16T05:29:49;99331.56;;;21.11;53.86
31121;BME280;17770;45.966;13.632;2023-05-16T05:32:15;99300.94;;;21.11;53.80
31121;BME280;17770;45.966;13.632;2023-05-16T05:34:41;99268.63;;;21.11;54.29
31121;BME280;17770;45.966;13.632;2023-05-16T05:37:08;99253.88;;;21.10;53.96
31121;BME280;17770;45.966;13.632;2023-05-16T05:39:33;99210.13;;;21.10;53.69
31121;BME280;17770;45.966;13.632;2023-05-16T05:42:00;99183.22;;;21.08;53.91
31121;BME280;17770;45.966;13.632;2023-05-16T05:44:26;99192.06;;;21.07;54.19
31121;BME280;17770;45.966;13.632;2023-05-16T05:46:52;99186.94;;;21.06;53.87
31121;BME280;17770;45.966;13.632;2023-05-16T05:49:18;99187.63;;;21.08;54.00
31121;BME280;17770;45.966;13.632;2023-05-16T05:51:44;99222.56;;;21.08;53.98
31121;BME280;17770;45.966;13.632;2023-05-16T05:54:10;99230.56;;;21.07;53.97
31121;BME280;17770;45.966;13.632;2023-05-16T05:56:36;99222.69;;;21.07;53.91
31121;BME280;17770;45.966;13.632;2023-05-16T05:59:02;99209.59;;;21.07;54.08
31121;BME280;17770;45.966;13.632;2023-05-16T06:01:28;99221.03;;;21.06;53.85
31121;BME280;17770;45.966;13.632;2023-05-16T06:03:54;99228.88;;;21.06;53.75
31121;BME280;17770;45.966;13.632;2023-05-16T06:06:20;99274.44;;;21.05;54.03
31121;BME280;17770;45.966;13.632;2023-05-16T06:08:46;99253.59;;;21.03;54.10
31121;BME280;17770;45.966;13.632;2023-05-16T06:11:12;99279.69;;;21.05;53.89
31121;BME280;17770;45.966;13.632;2023-05-16T06:13:38;99328.66;;;21.04;53.92
31121;BME280;17770;45.966;13.632;2023-05-16T06:16:03;99276.38;;;21.03;53.76
31121;BME280;17770;45.966;13.632;2023-05-16T06:18:30;99291.16;;;21.04;53.94
31121;BME280;17770;45.966;13.632;2023-05-16T06:20:56;99302.72;;;21.01;53.95
31121;BME280;17770;45.966;13.632;2023-05-16T06:23:21;99269.63;;;21.00;54.07
31121;BME280;17770;45.966;13.632;2023-05-16T06:25:47;99287.28;;;20.98;54.12
31121;BME280;17770;45.966;13.632;2023-05-16T06:28:13;99276.88;;;20.97;54.20
31121;BME280;17770;45.966;13.632;2023-05-16T06:30:39;99273.44;;;20.96;54.05
31121;BME280;17770;45.966;13.632;2023-05-16T06:33:05;99275.13;;;20.97;54.14
31121;BME280;17770;45.966;13.632;2023-05-16T06:35:31;99288.25;;;20.97;53.90
31121;BME280;17770;45.966;13.632;2023-05-16T06:37:56;99296.91;;;20.98;54.05
31121;BME280;17770;45.966;13.632;2023-05-16T06:40:22;99304.09;;;20.96;54.02
31121;BME280;17770;45.966;13.632;2023-05-16T06:42:48;99323.25;;;20.96;54.13
31121;BME280;17770;45.966;13.632;2023-05-16T06:45:15;99325.88;;;20.96;54.23
31121;BME280;17770;45.966;13.632;2023-05-16T06:47:41;99331.94;;;20.97;53.86
31121;BME280;17770;45.966;13.632;2023-05-16T06:50:07;99343.41;;;20.96;53.75
31121;BME280;17770;45.966;13.632;2023-05-16T06:52:33;99334.84;;;20.94;53.79
31121;BME280;17770;45.966;13.632;2023-05-16T06:54:58;99337.47;;;20.94;53.90
31121;BME280;17770;45.966;13.632;2023-05-16T06:57:24;99306.00;;;20.94;53.93
31121;BME280;17770;45.966;13.632;2023-05-16T06:59:50;99321.88;;;20.92;53.91
31121;BME280;17770;45.966;13.632;2023-05-16T07:02:16;99312.19;;;20.93;53.76
31121;BME280;17770;45.966;13.632;2023-05-16T07:04:42;99347.13;;;20.93;53.81
31121;BME280;17770;45.966;13.632;2023-05-16T07:07:08;99305.16;;;20.93;54.05
31121;BME280;17770;45.966;13.632;2023-05-16T07:09:34;99313.16;;;20.92;54.22
31121;BME280;17770;45.966;13.632;2023-05-16T07:11:59;99297.31;;;20.93;53.99
31121;BME280;17770;45.966;13.632;2023-05-16T07:14:25;99307.94;;;20.92;53.64
31121;BME280;17770;45.966;13.632;2023-05-16T07:16:51;99316.78;;;20.91;53.82
31121;BME280;17770;45.966;13.632;2023-05-16T07:19:17;99322.00;;;20.91;54.12
31121;BME280;17770;45.966;13.632;2023-05-16T07:21:43;99336.91;;;20.90;53.90
31121;BME280;17770;45.966;13.632;2023-05-16T07:24:09;99322.13;;;20.89;53.90
31121;BME280;17770;45.966;13.632;2023-05-16T07:26:35;99303.78;;;20.89;54.16
31121;BME280;17770;45.966;13.632;2023-05-16T07:29:00;99258.41;;;20.89;53.89
31121;BME280;17770;45.966;13.632;2023-05-16T07:31:27;99234.13;;;20.87;53.97
31121;BME280;17770;45.966;13.632;2023-05-16T07:33:53;99202.25;;;20.82;53.16
31121;BME280;17770;45.966;13.632;2023-05-16T07:36:19;99210.09;;;20.82;53.24
31121;BME280;17770;45.966;13.632;2023-05-16T07:38:45;99232.47;;;20.86;53.83
31121;BME280;17770;45.966;13.632;2023-05-16T07:41:11;99259.63;;;20.85;53.81
31121;BME280;17770;45.966;13.632;2023-05-16T07:43:37;99279.50;;;20.87;53.87
31121;BME280;17770;45.966;13.632;2023-05-16T07:46:03;99271.66;;;20.87;53.85
31121;BME280;17770;45.966;13.632;2023-05-16T07:48:29;99276.88;;;20.87;53.58
31121;BME280;17770;45.966;13.632;2023-05-16T07:50:55;99270.66;;;20.88;53.84
31121;BME280;17770;45.966;13.632;2023-05-16T07:53:21;99228.72;;;20.88;53.62
31121;BME280;17770;45.966;13.632;2023-05-16T07:55:47;99249.56;;;20.90;53.48
31121;BME280;17770;45.966;13.632;2023-05-16T07:58:13;99251.34;;;20.89;53.48
31121;BME280;17770;45.966;13.632;2023-05-16T08:00:39;99238.25;;;20.89;53.43
31121;BME280;17770;45.966;13.632;2023-05-16T08:03:05;99264.44;;;20.89;53.50
31121;BME280;17770;45.966;13.632;2023-05-16T08:05:31;99269.03;;;20.87;53.66
31121;BME280;17770;45.966;13.632;2023-05-16T08:07:57;99258.41;;;20.89;53.73
31121;BME280;17770;45.966;13.632;2023-05-16T08:10:23;99269.84;;;20.88;53.82
31121;BME280;17770;45.966;13.632;2023-05-16T08:12:49;99261.16;;;20.87;53.56
31121;BME280;17770;45.966;13.632;2023-05-16T08:15:15;99238.38;;;20.88;53.40
31121;BME280;17770;45.966;13.632;2023-05-16T08:17:41;99227.09;;;20.87;53.43
31121;BME280;17770;45.966;13.632;2023-05-16T08:20:06;99207.91;;;20.87;53.62
31121;BME280;17770;45.966;13.632;2023-05-16T08:22:32;99263.78;;;20.87;53.69
31121;BME280;17770;45.966;13.632;2023-05-16T08:24:59;99204.44;;;20.86;53.76
31121;BME280;17770;45.966;13.632;2023-05-16T08:27:26;99244.59;;;20.87;53.33
31121;BME280;17770;45.966;13.632;2023-05-16T08:29:51;99245.44;;;20.87;53.63
31121;BME280;17770;45.966;13.632;2023-05-16T08:32:17;99248.06;;;20.87;53.55
31121;BME280;17770;45.966;13.632;2023-05-16T08:34:43;99236.72;;;20.87;53.45
31121;BME280;17770;45.966;13.632;2023-05-16T08:37:09;99249.97;;;20.85;53.48
31121;BME280;17770;45.966;13.632;2023-05-16T08:39:37;99245.69;;;20.84;53.06
31121;BME280;17770;45.966;13.632;2023-05-16T08:42:03;99222.78;;;20.86;53.55
31121;BME280;17770;45.966;13.632;2023-05-16T08:44:30;99220.44;;;20.83;53.66
31121;BME280;17770;45.966;13.632;2023-05-16T08:46:56;99223.06;;;20.83;53.55
31121;BME280;17770;45.966;13.632;2023-05-16T08:49:22;99223.91;;;20.84;53.45
31121;BME280;17770;45.966;13.632;2023-05-16T08:51:52;99213.56;;;20.82;53.45
31121;BME280;17770;45.966;13.632;2023-05-16T08:54:21;99248.44;;;20.83;53.42
31121;BME280;17770;45.966;13.632;2023-05-16T08:56:47;99268.59;;;20.82;53.41
31121;BME280;17770;45.966;13.632;2023-05-16T08:59:14;99247.63;;;20.82;53.45
31121;BME280;17770;45.966;13.632;2023-05-16T09:01:41;99278.25;;;20.82;53.57
31121;BME280;17770;45.966;13.632;2023-05-16T09:04:07;99277.56;;;20.80;53.38
31121;BME280;17770;45.966;13.632;2023-05-16T09:06:34;99279.22;;;20.81;53.36
31121;BME280;17770;45.966;13.632;2023-05-16T09:09:00;99298.25;;;20.83;53.17
31121;BME280;17770;45.966;13.632;2023-05-16T09:11:27;99295.63;;;20.83;53.34
31121;BME280;17770;45.966;13.632;2023-05-16T09:13:53;99304.19;;;20.85;53.14
31121;BME280;17770;45.966;13.632;2023-05-16T09:16:19;99262.38;;;20.83;53.19
31121;BME280;17770;45.966;13.632;2023-05-16T09:18:46;99292.75;;;20.86;53.14
31121;BME280;17770;45.966;13.632;2023-05-16T09:21:18;99284.06;;;20.85;53.11
31121;BME280;17770;45.966;13.632;2023-05-16T09:23:43;99284.91;;;20.86;53.04
31121;BME280;17770;45.966;13.632;2023-05-16T09:26:09;99323.38;;;20.85;53.36
31121;BME280;17770;45.966;13.632;2023-05-16T09:28:36;99313.59;;;20.87;53.25
31121;BME280;17770;45.966;13.632;2023-05-16T09:31:02;99318.84;;;20.87;53.10
31121;BME280;17770;45.966;13.632;2023-05-16T09:33:28;99331.94;;;20.87;52.83
31121;BME280;17770;45.966;13.632;2023-05-16T09:36:01;99328.34;;;20.88;53.12
31121;BME280;17770;45.966;13.632;2023-05-16T09:38:27;99366.00;;;20.87;53.26
31121;BME280;17770;45.966;13.632;2023-05-16T09:40:54;99350.28;;;20.87;53.22
31121;BME280;17770;45.966;13.632;2023-05-16T09:43:21;99366.69;;;20.89;53.00
31121;BME280;17770;45.966;13.632;2023-05-16T09:45:48;99346.69;;;20.88;53.23
31121;BME280;17770;45.966;13.632;2023-05-16T09:48:14;99344.06;;;20.88;53.02
31121;BME280;17770;45.966;13.632;2023-05-16T09:50:45;99355.53;;;20.87;52.74
31121;BME280;17770;45.966;13.632;2023-05-16T09:53:12;99372.06;;;20.88;53.13
31121;BME280;17770;45.966;13.632;2023-05-16T09:55:38;99362.56;;;20.87;52.93
31121;BME280;17770;45.966;13.632;2023-05-16T09:58:04;99377.31;;;20.88;53.28
31121;BME280;17770;45.966;13.632;2023-05-16T10:00:31;99396.50;;;20.88;52.89
31121;BME280;17770;45.966;13.632;2023-05-16T10:02:58;99382.53;;;20.88;53.17
31121;BME280;17770;45.966;13.632;2023-05-16T10:05:25;99382.69;;;20.86;53.37
31121;BME280;17770;45.966;13.632;2023-05-16T10:07:52;99404.50;;;20.87;53.11
31121;BME280;17770;45.966;13.632;2023-05-16T10:10:20;99406.97;;;20.88;53.29
31121;BME280;17770;45.966;13.632;2023-05-16T10:12:46;99399.09;;;20.88;53.40
31121;BME280;17770;45.966;13.632;2023-05-16T10:15:13;99403.50;;;20.88;53.05
31121;BME280;17770;45.966;13.632;2023-05-16T10:17:39;99395.78;;;20.86;53.19
31121;BME280;17770;45.966;13.632;2023-05-16T10:20:08;99404.63;;;20.85;53.36
31121;BME280;17770;45.966;13.632;2023-05-16T10:22:34;99399.09;;;20.88;53.11
31121;BME280;17770;45.966;13.632;2023-05-16T10:25:07;99416.63;;;20.88;53.10
31121;BME280;17770;45.966;13.632;2023-05-16T10:27:35;99423.53;;;20.89;53.12
31121;BME280;17770;45.966;13.632;2023-05-16T10:30:01;99416.63;;;20.88;53.36
31121;BME280;17770;45.966;13.632;2023-05-16T10:32:28;99415.69;;;20.89;53.14
31121;BME280;17770;45.966;13.632;2023-05-16T10:34:54;99436.78;;;20.87;53.60
31121;BME280;17770;45.966;13.632;2023-05-16T10:37:28;99409.59;;;20.88;53.26
31121;BME280;17770;45.966;13.632;2023-05-16T10:39:54;99432.47;;;20.86;53.31
31121;BME280;17770;45.966;13.632;2023-05-16T10:42:20;99436.91;;;20.86;53.31
31121;BME280;17770;45.966;13.632;2023-05-16T10:44:46;99448.22;;;20.86;53.37
31121;BME280;17770;45.966;13.632;2023-05-16T10:47:12;99441.19;;;20.87;53.41
31121;BME280;17770;45.966;13.632;2023-05-16T10:49:43;99437.72;;;20.86;53.30
31121;BME280;17770;45.966;13.632;2023-05-16T10:52:09;99433.31;;;20.87;53.22
31121;BME280;17770;45.966;13.632;2023-05-16T10:54:39;99459.66;;;20.85;53.54
31121;BME280;17770;45.966;13.632;2023-05-16T10:57:09;99457.88;;;20.86;53.61
31121;BME280;17770;45.966;13.632;2023-05-16T10:59:46;99469.44;;;20.83;53.52
31121;BME280;17770;45.966;13.632;2023-05-16T11:02:22;99466.56;;;20.86;53.56
31121;BME280;17770;45.966;13.632;2023-05-16T11:04:49;99470.16;;;20.85;53.29
31121;BME280;17770;45.966;13.632;2023-05-16T11:07:19;99468.38;;;20.86;53.54
31121;BME280;17770;45.966;13.632;2023-05-16T11:09:52;99465.75;;;20.86;53.33
31121;BME280;17770;45.966;13.632;2023-05-16T11:12:30;99473.72;;;20.84;53.19
31121;BME280;17770;45.966;13.632;2023-05-16T11:15:00;99469.31;;;20.85;53.23
31121;BME280;17770;45.966;13.632;2023-05-16T11:17:26;99475.53;;;20.84;53.17
31121;BME280;17770;45.966;13.632;2023-05-16T11:19:57;99487.66;;;20.85;53.48
31121;BME280;17770;45.966;13.632;2023-05-16T11:22:42;99479.09;;;20.83;53.29
31121;BME280;17770;45.966;13.632;2023-05-16T11:25:08;99477.31;;;20.83;53.48
31121;BME280;17770;45.966;13.632;2023-05-16T11:30:10;99479.09;;;20.83;53.26
31121;BME280;17770;45.966;13.632;2023-05-16T11:32:37;99477.44;;;20.82;53.67
31121;BME280;17770;45.966;13.632;2023-05-16T11:35:03;99479.09;;;20.83;53.63
31121;BME280;17770;45.966;13.632;2023-05-16T11:37:29;99478.16;;;20.84;53.33
31121;BME280;17770;45.966;13.632;2023-05-16T11:40:02;99487.78;;;20.83;53.49
31121;BME280;17770;45.966;13.632;2023-05-16T11:42:29;99482.69;;;20.82;53.42
31121;BME280;17770;45.966;13.632;2023-05-16T11:45:14;99482.69;;;20.82;53.58
31121;BME280;17770;45.966;13.632;2023-05-16T11:47:41;99478.28;;;20.82;53.62
31121;BME280;17770;45.966;13.632;2023-05-16T11:50:11;99461.59;;;20.83;53.33
31121;BME280;17770;45.966;13.632;2023-05-16T11:52:37;99467.81;;;20.82;53.40
31121;BME280;17770;45.966;13.632;2023-05-16T11:55:03;99452.22;;;20.81;53.48
31121;BME280;17770;45.966;13.632;2023-05-16T11:57:31;99446.84;;;20.82;53.34
31121;BME280;17770;45.966;13.632;2023-05-16T12:00:01;99453.03;;;20.81;53.51
31121;BME280;17770;45.966;13.632;2023-05-16T12:02:29;99435.66;;;20.80;53.28
31121;BME280;17770;45.966;13.632;2023-05-16T12:04:56;99430.28;;;20.82;53.59
31121;BME280;17770;45.966;13.632;2023-05-16T12:07:26;99431.25;;;20.81;53.27
31121;BME280;17770;45.966;13.632;2023-05-16T12:09:52;99455.63;;;20.81;53.71
31121;BME280;17770;45.966;13.632;2023-05-16T12:12:19;99477.44;;;20.82;53.62
31121;BME280;17770;45.966;13.632;2023-05-16T12:14:46;99483.66;;;20.81;53.31
31121;BME280;17770;45.966;13.632;2023-05-16T12:17:12;99488.91;;;20.81;53.30
31121;BME280;17770;45.966;13.632;2023-05-16T12:19:38;99476.75;;;20.80;53.50
31121;BME280;17770;45.966;13.632;2023-05-16T12:22:04;99473.19;;;20.81;53.44
31121;BME280;17770;45.966;13.632;2023-05-16T12:24:30;99451.38;;;20.80;53.50
31121;BME280;17770;45.966;13.632;2023-05-16T12:26:56;99462.00;;;20.79;53.52
31121;BME280;17770;45.966;13.632;2023-05-16T12:29:23;99454.00;;;20.80;53.37
31121;BME280;17770;45.966;13.632;2023-05-16T12:31:51;99469.72;;;20.80;53.42
31121;BME280;17770;45.966;13.632;2023-05-16T12:34:18;99468.88;;;20.80;53.33
31121;BME280;17770;45.966;13.632;2023-05-16T12:36:45;99462.00;;;20.79;53.54
31121;BME280;17770;45.966;13.632;2023-05-16T12:39:14;99462.84;;;20.79;53.49
31121;BME280;17770;45.966;13.632;2023-05-16T12:41:41;99469.00;;;20.78;53.30
31121;BME280;17770;45.966;13.632;2023-05-16T12:44:14;99448.03;;;20.78;53.66
31121;BME280;17770;45.966;13.632;2023-05-16T12:46:43;99465.56;;;20.77;53.33
31121;BME280;17770;45.966;13.632;2023-05-16T12:49:10;99459.50;;;20.77;53.16
31121;BME280;17770;45.966;13.632;2023-05-16T12:51:36;99484.75;;;20.78;53.29
31121;BME280;17770;45.966;13.632;2023-05-16T12:54:09;99479.50;;;20.78;53.68
31121;BME280;17770;45.966;13.632;2023-05-16T12:56:39;99485.72;;;20.77;53.44
31121;BME280;17770;45.966;13.632;2023-05-16T12:59:06;99490.13;;;20.77;53.31
31121;BME280;17770;45.966;13.632;2023-05-16T13:01:32;99489.28;;;20.76;53.27
31121;BME280;17770;45.966;13.632;2023-05-16T13:03:58;99494.50;;;20.76;53.82
31121;BME280;17770;45.966;13.632;2023-05-16T13:06:24;99496.19;;;20.77;53.55
31121;BME280;17770;45.966;13.632;2023-05-16T13:08:49;99489.13;;;20.77;53.75